createdAt,value
2017-12-03T18:27:18.928Z,-0.40
2017-12-03T18:29:23.244Z,-0.30
2017-12-03T18:31:28.093Z,-0.30
2017-12-03T18:33:31.537Z,-0.40
2017-12-03T18:35:34.941Z,-0.30
2017-12-03T18:37:39.869Z,-0.20
2017-12-03T18:39:43.341Z,-0.30
2017-12-03T18:41:47.516Z,-0.30
2017-12-03T18:43:50.980Z,-0.30
2017-12-03T18:45:54.684Z,-0.30
2017-12-03T18:48:00.674Z,-0.30
2017-12-03T18:50:05.306Z,-0.30
2017-12-03T18:52:09.370Z,-0.30
2017-12-03T18:54:13.680Z,-0.30
2017-12-03T18:56:18.700Z,-0.30
2017-12-03T18:58:25.070Z,-0.30
2017-12-03T19:00:29.830Z,-0.30
2017-12-03T19:02:33.715Z,-0.30
2017-12-03T19:04:37.912Z,-0.20
2017-12-03T19:06:42.498Z,-0.20
2017-12-03T19:08:48.239Z,-0.30
2017-12-03T19:10:52.969Z,-0.30
2017-12-03T19:12:58.231Z,-0.30
2017-12-03T19:15:02.621Z,-0.30
2017-12-03T19:17:06.266Z,-0.30
2017-12-03T19:19:11.528Z,-0.20
2017-12-03T19:21:16.077Z,-0.20
2017-12-03T19:23:19.681Z,-0.30
2017-12-03T19:25:23.247Z,-0.30
2017-12-03T19:27:27.053Z,-0.30
2017-12-03T19:29:33.931Z,-0.30
2017-12-03T19:31:38.284Z,-0.30
2017-12-03T19:33:42.370Z,-0.30
2017-12-03T19:35:47.888Z,-0.20
2017-12-03T19:37:51.883Z,-0.30
2017-12-03T19:39:55.689Z,-0.20
2017-12-03T19:41:59.992Z,-0.20
2017-12-03T19:44:03.595Z,-0.20
2017-12-03T19:46:07.510Z,-0.20
2017-12-03T19:48:11.867Z,-0.20
2017-12-03T19:50:18.294Z,-0.20
2017-12-03T19:52:22.215Z,-0.20
2017-12-03T19:54:25.631Z,-0.20
2017-12-03T19:56:29.624Z,-0.20
2017-12-03T19:58:33.986Z,-0.20
2017-12-03T20:00:37.591Z,-0.20
2017-12-03T20:02:41.228Z,-0.20
2017-12-03T20:04:45.500Z,-0.10
2017-12-03T20:06:49.012Z,-0.10
2017-12-03T20:08:53.507Z,-0.10
2017-12-03T20:10:57.149Z,-0.20
2017-12-03T20:13:01.143Z,-0.20
2017-12-03T20:15:04.839Z,-0.20
2017-12-03T20:17:08.321Z,-0.10
2017-12-03T20:19:11.802Z,-0.10
2017-12-03T20:21:15.353Z,-0.10
2017-12-03T20:23:19.544Z,-0.10
2017-12-03T20:25:24.216Z,-0.10
2017-12-03T20:27:29.804Z,-0.10
2017-12-03T20:29:34.498Z,-0.10
2017-12-03T20:31:40.243Z,0.00
2017-12-03T20:33:44.623Z,0.00
2017-12-03T20:35:48.693Z,-0.10
2017-12-03T20:37:52.240Z,0.00
2017-12-03T20:39:56.178Z,0.00
2017-12-03T20:42:04.262Z,0.00
2017-12-03T20:44:08.664Z,-0.10
2017-12-03T20:46:12.635Z,-0.10
2017-12-03T20:48:17.288Z,0.00
2017-12-03T20:50:21.681Z,0.00
2017-12-03T20:52:25.751Z,0.00
2017-12-03T20:54:30.592Z,0.00
2017-12-03T20:56:34.213Z,0.00
2017-12-03T20:58:38.386Z,0.00
2017-12-03T21:00:41.719Z,0.00
2017-12-03T21:02:45.112Z,0.00
2017-12-03T21:04:48.500Z,0.00
2017-12-03T21:06:51.853Z,0.00
2017-12-03T21:08:55.235Z,0.00
2017-12-03T21:10:58.627Z,0.00
2017-12-03T21:13:02.978Z,0.00
2017-12-03T21:15:07.155Z,0.10
2017-12-03T21:17:10.513Z,0.00
2017-12-03T21:19:14.664Z,0.00
2017-12-03T21:21:18.048Z,0.00
2017-12-03T21:23:21.394Z,0.00
2017-12-03T21:25:24.791Z,0.00
2017-12-03T21:27:28.163Z,0.00
2017-12-03T21:29:31.589Z,0.00
2017-12-03T21:31:35.058Z,0.00
2017-12-03T21:33:38.441Z,0.00
2017-12-03T21:35:42.623Z,0.00
2017-12-03T21:37:45.970Z,0.00
2017-12-03T21:39:49.736Z,0.00
2017-12-03T21:41:53.860Z,0.00
2017-12-03T21:43:57.243Z,0.00
2017-12-03T21:46:01.519Z,0.10
2017-12-03T21:48:04.858Z,0.10
2017-12-03T21:50:08.281Z,0.00
2017-12-03T21:52:11.611Z,0.00
2017-12-03T21:54:14.953Z,0.10
2017-12-03T21:56:19.093Z,0.10
2017-12-03T21:58:22.651Z,0.10
2017-12-03T22:00:26.071Z,0.10
2017-12-03T22:02:29.428Z,0.00
2017-12-03T22:04:33.554Z,0.00
2017-12-03T22:06:36.949Z,0.00
2017-12-03T22:08:40.343Z,0.10
2017-12-03T22:10:43.707Z,0.10
2017-12-03T22:12:47.038Z,0.10
2017-12-03T22:14:50.421Z,0.10
2017-12-03T22:16:54.553Z,0.10
2017-12-03T22:18:57.892Z,0.00
2017-12-03T22:21:01.273Z,0.10
2017-12-03T22:23:04.617Z,0.10
2017-12-03T22:25:08.718Z,0.10
2017-12-03T22:27:12.828Z,0.10
2017-12-03T22:29:16.922Z,0.10
2017-12-03T22:31:20.302Z,0.10
2017-12-03T22:33:23.838Z,0.10
2017-12-03T22:35:27.208Z,0.10
2017-12-03T22:37:30.629Z,0.10
2017-12-03T22:39:33.980Z,0.10
2017-12-03T22:41:37.307Z,0.10
2017-12-03T22:43:40.672Z,0.10
2017-12-03T22:45:44.642Z,0.10
2017-12-03T22:47:48.014Z,0.10
2017-12-03T22:49:51.345Z,0.10
2017-12-03T22:51:54.698Z,0.20
2017-12-03T22:53:58.075Z,0.10
2017-12-03T22:56:02.195Z,0.10
2017-12-03T22:58:05.558Z,0.20
2017-12-03T23:00:09.411Z,0.10
2017-12-03T23:02:12.855Z,0.10
2017-12-03T23:04:16.249Z,0.10
2017-12-03T23:06:19.655Z,0.10
2017-12-03T23:08:23.091Z,0.10
2017-12-03T23:10:26.399Z,0.10
2017-12-03T23:12:30.521Z,0.30
2017-12-03T23:14:33.916Z,0.20
2017-12-03T23:16:37.244Z,0.20
2017-12-03T23:18:40.591Z,0.20
2017-12-03T23:20:44.725Z,0.10
2017-12-03T23:22:48.098Z,0.10
2017-12-03T23:24:52.237Z,0.20
2017-12-03T23:26:55.598Z,0.10
2017-12-03T23:28:59.075Z,0.20
2017-12-03T23:31:03.203Z,0.20
2017-12-03T23:33:07.324Z,0.20
2017-12-03T23:35:10.700Z,0.20
2017-12-03T23:37:14.826Z,0.20
2017-12-03T23:39:18.949Z,0.20
2017-12-03T23:41:22.315Z,0.10
2017-12-03T23:43:25.678Z,0.20
2017-12-03T23:45:29.108Z,0.20
2017-12-03T23:47:32.456Z,0.20
2017-12-03T23:49:35.792Z,0.20
2017-12-03T23:51:39.177Z,0.20
2017-12-03T23:53:42.550Z,0.20
2017-12-03T23:55:46.686Z,0.20
2017-12-03T23:57:50.054Z,0.20
2017-12-03T23:59:54.274Z,0.20
